createdAt,value
2022-08-18T00:02:28.710Z,12.93
2022-08-18T00:06:52.010Z,14.57
2022-08-18T00:11:15.312Z,13.20
2022-08-18T00:15:41.806Z,11.63
2022-08-18T00:20:19.068Z,13.68
2022-08-18T00:24:48.327Z,13.43
2022-08-18T00:29:11.169Z,15.00
2022-08-18T00:33:33.961Z,15.02
2022-08-18T00:37:59.649Z,13.82
2022-08-18T00:42:30.658Z,12.82
2022-08-18T00:46:53.468Z,12.85
2022-08-18T00:51:32.009Z,13.20
2022-08-18T00:55:57.011Z,11.18
2022-08-18T01:00:19.742Z,13.85
2022-08-18T01:04:50.431Z,14.27
2022-08-18T01:09:13.108Z,11.82
2022-08-18T01:13:38.967Z,13.40
2022-08-18T01:18:30.441Z,11.65
2022-08-18T01:23:05.060Z,13.30
2022-08-18T01:27:32.268Z,12.20
2022-08-18T01:31:57.571Z,12.35
2022-08-18T01:36:22.248Z,11.95
2022-08-18T01:41:25.164Z,11.65
2022-08-18T01:45:27.927Z,13.50
2022-08-18T01:49:50.646Z,12.27
2022-08-18T01:54:15.228Z,16.27
2022-08-18T01:58:37.769Z,12.82
2022-08-18T02:03:02.914Z,14.88
2022-08-18T02:07:30.804Z,11.70
2022-08-18T02:11:58.837Z,10.77
2022-08-18T02:16:21.288Z,11.82
2022-08-18T02:20:44.901Z,14.50
2022-08-18T02:25:08.867Z,10.13
2022-08-18T02:29:31.531Z,14.50
2022-08-18T02:33:53.829Z,11.68
2022-08-18T02:38:17.483Z,12.10
2022-08-18T02:42:40.208Z,11.85
2022-08-18T02:47:03.231Z,14.55
2022-08-18T02:51:25.967Z,10.73
2022-08-18T02:55:49.107Z,14.43
2022-08-18T03:00:16.547Z,13.93
2022-08-18T03:04:41.348Z,12.52
2022-08-18T03:09:06.926Z,11.65
2022-08-18T03:13:30.588Z,10.27
2022-08-18T03:17:53.217Z,11.55
2022-08-18T03:22:27.309Z,11.88
2022-08-18T03:26:53.908Z,14.10
2022-08-18T03:31:18.246Z,11.93
2022-08-18T03:35:41.846Z,12.07
2022-08-18T03:40:05.032Z,11.57
2022-08-18T03:44:33.821Z,12.02
2022-08-18T03:48:58.779Z,11.30
2022-08-18T03:53:21.306Z,17.00
2022-08-18T03:57:45.873Z,12.00
2022-08-18T04:02:08.307Z,12.23
2022-08-18T04:06:43.066Z,14.32
2022-08-18T04:11:05.946Z,13.15
2022-08-18T04:15:28.387Z,14.55
2022-08-18T04:19:53.206Z,12.48
2022-08-18T04:24:15.548Z,18.10
2022-08-18T04:28:37.948Z,14.60
2022-08-18T04:33:02.866Z,18.65
2022-08-18T04:37:25.388Z,16.27
2022-08-18T04:41:48.746Z,14.68
2022-08-18T04:46:11.668Z,15.45
2022-08-18T04:50:36.258Z,13.00
2022-08-18T04:54:58.403Z,23.27
2022-08-18T04:59:20.927Z,18.02
2022-08-18T05:03:50.315Z,20.52
2022-08-18T05:08:13.021Z,20.55
2022-08-18T05:12:35.558Z,17.98
2022-08-18T05:17:04.087Z,13.13
2022-08-18T05:21:26.701Z,16.50
2022-08-18T05:25:50.365Z,15.68
2022-08-18T05:30:15.684Z,12.85
2022-08-18T05:34:38.919Z,13.70
2022-08-18T05:39:36.810Z,17.40
2022-08-18T05:43:59.666Z,20.67
2022-08-18T05:48:22.106Z,19.00
2022-08-18T05:53:12.567Z,16.58
2022-08-18T05:57:45.660Z,29.42
2022-08-18T06:02:42.906Z,19.73
2022-08-18T06:07:12.187Z,20.02
2022-08-18T06:11:34.688Z,19.52
2022-08-18T06:16:34.011Z,16.45
2022-08-18T06:21:17.309Z,23.33
2022-08-18T06:26:07.047Z,19.35
2022-08-18T06:31:14.566Z,19.00
2022-08-18T06:35:51.939Z,18.40
2022-08-18T06:40:14.705Z,17.75
2022-08-18T06:44:45.925Z,16.52
2022-08-18T06:49:22.126Z,17.80
2022-08-18T06:54:21.546Z,13.30
2022-08-18T06:58:43.946Z,14.05
2022-08-18T07:03:18.326Z,9.32
2022-08-18T07:07:42.448Z,8.20
2022-08-18T07:12:11.248Z,14.88
2022-08-18T07:16:57.148Z,12.10
2022-08-18T07:21:31.926Z,10.63
2022-08-18T07:26:20.628Z,12.68
2022-08-18T07:31:00.260Z,12.60
2022-08-18T07:35:42.275Z,15.60
2022-08-18T07:40:42.282Z,9.98
2022-08-18T07:45:18.852Z,8.48
2022-08-18T07:50:16.424Z,7.95
2022-08-18T07:54:55.222Z,11.52
2022-08-18T07:59:29.991Z,14.48
2022-08-18T08:04:11.612Z,11.40
2022-08-18T08:09:08.339Z,12.02
2022-08-18T08:13:56.129Z,10.02
2022-08-18T08:18:38.418Z,11.95
2022-08-18T08:23:34.809Z,12.13
2022-08-18T08:28:40.804Z,12.43
2022-08-18T08:33:22.643Z,11.20
2022-08-18T08:37:57.022Z,14.68
2022-08-18T08:42:45.967Z,11.30
2022-08-18T08:47:52.518Z,15.57
2022-08-18T08:52:31.066Z,12.90
2022-08-18T08:56:59.777Z,15.50
2022-08-18T09:01:34.593Z,15.43
2022-08-18T09:06:18.389Z,11.57
2022-08-18T09:11:14.284Z,18.05
2022-08-18T09:15:58.374Z,17.80
2022-08-18T09:20:58.683Z,15.68
2022-08-18T09:25:54.791Z,17.58
2022-08-18T09:31:11.408Z,16.17
2022-08-18T09:36:02.064Z,13.32
2022-08-18T09:41:02.661Z,17.77
2022-08-18T09:45:33.525Z,14.52
2022-08-18T09:50:26.789Z,17.67
2022-08-18T09:55:01.105Z,18.75
2022-08-18T09:59:38.146Z,15.95
2022-08-18T10:04:15.402Z,11.60
2022-08-18T10:09:27.239Z,18.92
2022-08-18T10:14:20.539Z,17.77
2022-08-18T10:19:05.587Z,16.42
2022-08-18T10:24:29.870Z,17.17
2022-08-18T10:29:02.945Z,14.32
2022-08-18T10:33:55.853Z,13.68
2022-08-18T10:38:54.162Z,16.17
2022-08-18T10:48:04.885Z,17.77
2022-08-18T10:53:17.126Z,16.25
2022-08-18T10:58:27.943Z,16.10
2022-08-18T11:03:42.191Z,21.08
2022-08-18T11:07:52.154Z,17.27
2022-08-18T11:13:16.885Z,24.38
2022-08-18T11:18:10.521Z,24.50
2022-08-18T11:22:36.408Z,18.67
2022-08-18T11:27:17.138Z,24.75
2022-08-18T11:31:39.645Z,23.30
2022-08-18T11:36:02.815Z,18.23
2022-08-18T11:41:09.550Z,19.50
2022-08-18T11:45:27.565Z,23.55
2022-08-18T11:50:13.479Z,23.77
2022-08-18T11:54:50.953Z,20.20
2022-08-18T11:59:52.733Z,20.30
2022-08-18T12:04:14.502Z,18.48
2022-08-18T12:08:58.038Z,23.20
2022-08-18T12:13:25.773Z,24.20
2022-08-18T12:17:52.473Z,21.38
2022-08-18T12:22:22.489Z,24.23
2022-08-18T12:31:29.131Z,23.20
2022-08-18T12:36:09.720Z,19.88
2022-08-18T12:40:35.958Z,22.95
2022-08-18T12:44:58.685Z,24.25
2022-08-18T12:49:25.447Z,17.98
2022-08-18T12:53:58.196Z,20.77
2022-08-18T12:58:22.147Z,18.90
2022-08-18T13:02:45.676Z,23.13
2022-08-18T13:07:08.368Z,21.58
2022-08-18T13:11:30.788Z,26.17
2022-08-18T13:15:58.592Z,24.13
2022-08-18T13:20:23.967Z,22.23
2022-08-18T13:24:47.932Z,21.48
2022-08-18T13:29:10.991Z,22.35
2022-08-18T13:33:56.816Z,19.42
2022-08-18T13:38:25.659Z,20.95
2022-08-18T13:42:50.851Z,21.17
2022-08-18T13:47:13.619Z,22.25
2022-08-18T13:51:36.127Z,23.45
2022-08-18T13:56:00.148Z,18.85
2022-08-18T14:00:29.808Z,19.70
2022-08-18T14:04:56.236Z,22.65
2022-08-18T14:09:19.830Z,20.05
2022-08-18T14:13:50.639Z,23.27
2022-08-18T14:18:16.236Z,22.17
2022-08-18T14:22:57.590Z,20.75
2022-08-18T14:27:27.182Z,21.75
2022-08-18T14:31:57.426Z,21.77
2022-08-18T14:36:30.044Z,19.65
2022-08-18T14:40:53.186Z,22.80
2022-08-18T14:45:26.371Z,25.83
2022-08-18T14:49:58.456Z,18.42
2022-08-18T14:54:20.988Z,22.65
2022-08-18T14:58:43.604Z,25.95
2022-08-18T15:03:07.783Z,21.35
2022-08-18T15:07:32.828Z,19.83
2022-08-18T15:12:00.110Z,19.75
2022-08-18T15:16:31.589Z,22.50
2022-08-18T15:21:19.539Z,21.27
2022-08-18T15:25:58.879Z,25.13
2022-08-18T15:30:22.952Z,21.92
2022-08-18T15:34:46.808Z,22.15
2022-08-18T15:39:13.580Z,23.30
2022-08-18T15:43:45.836Z,21.30
2022-08-18T15:48:08.650Z,26.58
2022-08-18T15:52:35.251Z,20.00
2022-08-18T15:56:58.994Z,20.45
2022-08-18T16:01:32.310Z,22.40
2022-08-18T16:05:56.075Z,22.58
2022-08-18T16:10:22.029Z,25.83
2022-08-18T16:14:45.078Z,19.73
2022-08-18T16:19:08.157Z,23.05
2022-08-18T16:23:45.586Z,21.63
2022-08-18T16:42:25.801Z,19.40
2022-08-18T16:46:48.455Z,21.02
2022-08-18T16:51:17.609Z,18.90
2022-08-18T16:55:39.614Z,19.05
2022-08-18T17:00:24.989Z,51.95
2022-08-18T17:04:47.235Z,31.90
2022-08-18T17:09:10.353Z,27.75
2022-08-18T17:13:34.844Z,20.15
2022-08-18T17:17:57.569Z,21.35
2022-08-18T17:22:20.104Z,17.40
2022-08-18T17:27:11.900Z,19.08
2022-08-18T17:32:10.537Z,18.20
2022-08-18T17:36:53.226Z,16.60
2022-08-18T17:41:19.093Z,17.10
2022-08-18T17:45:42.730Z,22.80
2022-08-18T17:51:04.617Z,18.35
2022-08-18T17:55:39.507Z,21.92
2022-08-18T18:00:17.586Z,17.90
2022-08-18T18:04:44.629Z,18.58
2022-08-18T18:09:13.723Z,23.08
2022-08-18T18:13:35.923Z,24.42
2022-08-18T18:17:58.325Z,24.13
2022-08-18T18:22:26.644Z,21.70
2022-08-18T18:26:49.103Z,19.63
2022-08-18T18:31:28.130Z,21.77
2022-08-18T18:35:58.164Z,25.77
2022-08-18T18:40:23.464Z,27.90
2022-08-18T18:44:56.995Z,24.23
2022-08-18T18:49:37.285Z,25.30
2022-08-18T18:54:24.956Z,23.70
2022-08-18T18:58:56.461Z,26.02
2022-08-18T19:03:39.536Z,31.30
2022-08-18T19:08:24.502Z,30.63
2022-08-18T19:13:02.464Z,27.35
2022-08-18T19:17:47.245Z,27.13
2022-08-18T19:22:23.290Z,26.55
2022-08-18T19:26:56.881Z,29.55
2022-08-18T19:31:45.045Z,29.45
2022-08-18T19:37:07.328Z,30.77
2022-08-18T19:41:50.465Z,32.63
2022-08-18T19:46:18.966Z,30.75
2022-08-18T19:51:18.684Z,30.73
2022-08-18T19:56:05.507Z,32.75
2022-08-18T20:00:57.170Z,29.58
2022-08-18T20:05:46.246Z,32.42
2022-08-18T20:10:49.588Z,28.23
2022-08-18T20:15:23.057Z,30.33
2022-08-18T20:19:55.124Z,28.83
2022-08-18T20:24:44.625Z,26.65
2022-08-18T20:29:36.504Z,29.50
2022-08-18T20:34:14.313Z,32.70
2022-08-18T20:38:45.882Z,31.23
2022-08-18T20:43:33.807Z,33.28
2022-08-18T20:48:39.957Z,38.92
2022-08-18T20:53:34.384Z,33.80
2022-08-18T20:58:08.093Z,35.03
2022-08-18T21:02:43.492Z,35.08
2022-08-18T21:07:15.688Z,35.55
2022-08-18T21:11:48.105Z,31.33
2022-08-18T21:16:38.479Z,34.55
2022-08-18T21:21:02.585Z,31.17
2022-08-18T21:25:25.115Z,32.60
2022-08-18T21:29:49.504Z,34.30
2022-08-18T21:34:35.879Z,35.30
2022-08-18T21:39:08.802Z,37.00
2022-08-18T21:43:50.860Z,31.92
2022-08-18T21:48:13.775Z,33.42
2022-08-18T21:52:40.443Z,29.65
2022-08-18T21:57:27.067Z,31.45
2022-08-18T22:01:56.032Z,31.00
2022-08-18T22:06:36.268Z,28.63
2022-08-18T22:12:00.039Z,30.13
2022-08-18T22:16:36.523Z,35.00
2022-08-18T22:21:01.223Z,35.30
2022-08-18T22:25:40.006Z,35.95
2022-08-18T22:30:06.038Z,34.45
2022-08-18T22:34:32.458Z,35.63
2022-08-18T22:38:56.382Z,36.35
2022-08-18T22:43:18.837Z,29.38
2022-08-18T22:47:44.798Z,31.90
2022-08-18T22:52:42.477Z,32.38
2022-08-18T22:57:06.589Z,35.28
2022-08-18T23:01:30.293Z,31.45
2022-08-18T23:05:54.822Z,31.35
2022-08-18T23:10:17.962Z,36.58
2022-08-18T23:14:41.702Z,34.88
2022-08-18T23:19:04.905Z,35.45
2022-08-18T23:23:29.650Z,37.92
2022-08-18T23:27:54.810Z,32.90
2022-08-18T23:32:18.591Z,39.50
2022-08-18T23:36:45.322Z,35.95
2022-08-18T23:41:13.527Z,37.78
2022-08-18T23:45:42.710Z,35.85
2022-08-18T23:50:08.564Z,36.22
2022-08-18T23:54:35.765Z,33.47
2022-08-18T23:58:59.662Z,38.17
